Terminal Aerodrome Forecast
Issued by NWS

Home | Current Version | Previous Version | Text Only | Print | Product List | Glossary On
Versions: 1 2 3 4 5 6 7 8 9 10 11 12 13 14 15
000
FTUS42 KMLB 261300 CCA
TAFSUA
TAF COR
KSUA 261347Z 2614/2712 01006KT P6SM OVC035
     FM261800 07009KT P6SM VCSH OVC025
     FM270900 07003KT P6SM VCSH BKN010 OVC020=

USA.gov is the U.S. government's official web portal to all federal, state and local government web resources and services.